createdAt,value
2023-04-07T00:01:56.633Z,8.43
2023-04-07T00:04:23.215Z,8.56
2023-04-07T00:06:52.328Z,7.79
2023-04-07T00:09:18.755Z,7.93
2023-04-07T00:11:45.347Z,7.57
2023-04-07T00:14:14.152Z,7.54
2023-04-07T00:16:40.693Z,7.36
2023-04-07T00:19:07.046Z,7.37
2023-04-07T00:21:33.565Z,7.53
2023-04-07T00:24:00.030Z,7.71
2023-04-07T00:26:31.396Z,7.79
2023-04-07T00:29:01.332Z,7.83
2023-04-07T00:31:27.735Z,7.83
2023-04-07T00:33:55.698Z,7.97
2023-04-07T00:36:22.398Z,7.96
2023-04-07T00:38:48.922Z,8.28
2023-04-07T00:41:15.764Z,8.53
2023-04-07T00:43:42.211Z,8.82
2023-04-07T00:46:08.696Z,8.13
2023-04-07T00:48:37.027Z,8.16
2023-04-07T00:51:04.097Z,8.29
2023-04-07T00:53:30.530Z,8.06
2023-04-07T00:55:57.069Z,8.31
2023-04-07T00:58:23.580Z,8.42
2023-04-07T01:00:58.295Z,8.28
2023-04-07T01:03:35.859Z,8.35
2023-04-07T01:06:08.667Z,8.40
2023-04-07T01:08:53.955Z,8.68
2023-04-07T01:11:25.993Z,8.55
2023-04-07T01:13:54.360Z,8.42
2023-04-07T01:16:30.433Z,8.34
2023-04-07T01:19:04.690Z,7.92
2023-04-07T01:21:34.277Z,8.01
2023-04-07T01:24:32.871Z,8.42
2023-04-07T01:27:33.000Z,8.47
2023-04-07T01:30:03.386Z,8.02
2023-04-07T01:32:31.565Z,7.82
2023-04-07T01:34:59.832Z,8.11
2023-04-07T01:37:31.060Z,7.95
2023-04-07T01:39:57.455Z,8.07
2023-04-07T01:42:26.204Z,8.37
2023-04-07T01:44:53.881Z,8.48
2023-04-07T01:47:20.617Z,8.42
2023-04-07T01:49:50.833Z,8.45
2023-04-07T01:52:21.365Z,8.47
2023-04-07T01:54:48.667Z,8.47
2023-04-07T01:57:17.523Z,8.25
2023-04-07T01:59:49.213Z,8.35
2023-04-07T02:02:18.079Z,8.23
2023-04-07T02:05:00.804Z,8.46
2023-04-07T02:07:41.162Z,8.49
2023-04-07T02:10:15.174Z,8.44
2023-04-07T02:12:47.057Z,8.39
2023-04-07T02:15:15.563Z,8.41
2023-04-07T02:17:47.810Z,8.53
2023-04-07T02:20:15.593Z,8.29
2023-04-07T02:22:42.656Z,8.31
2023-04-07T02:25:22.967Z,8.18
2023-04-07T02:27:53.333Z,8.13
2023-04-07T02:30:20.291Z,8.50
2023-04-07T02:32:47.306Z,7.95
2023-04-07T02:35:17.853Z,8.44
2023-04-07T02:37:45.360Z,8.53
2023-04-07T02:40:14.688Z,8.59
2023-04-07T02:42:41.656Z,8.68
2023-04-07T02:45:09.717Z,8.27
2023-04-07T02:47:39.485Z,8.43
2023-04-07T02:50:06.682Z,8.31
2023-04-07T02:52:33.057Z,8.42
2023-04-07T02:54:59.651Z,8.59
2023-04-07T02:57:26.213Z,8.15
2023-04-07T02:59:52.582Z,8.45
2023-04-07T03:02:19.204Z,8.40
2023-04-07T03:04:45.887Z,8.15
2023-04-07T03:07:12.419Z,8.49
2023-04-07T03:09:38.803Z,8.47
2023-04-07T03:12:05.315Z,8.09
2023-04-07T03:14:31.656Z,8.37
2023-04-07T03:17:00.619Z,8.53
2023-04-07T03:19:27.393Z,8.81
2023-04-07T03:21:53.962Z,8.60
2023-04-07T03:24:20.467Z,8.85
2023-04-07T03:26:47.150Z,8.77
2023-04-07T03:29:13.864Z,8.84
2023-04-07T03:31:40.515Z,8.71
2023-04-07T03:34:07.043Z,8.51
2023-04-07T03:36:34.549Z,8.91
2023-04-07T03:39:00.981Z,8.67
2023-04-07T03:41:27.327Z,8.72
2023-04-07T03:43:53.864Z,8.86
2023-04-07T03:46:27.247Z,8.91
2023-04-07T03:48:53.961Z,8.86
2023-04-07T03:51:22.957Z,8.68
2023-04-07T03:53:49.542Z,8.94
2023-04-07T03:56:16.228Z,8.87
2023-04-07T03:58:49.758Z,9.03
2023-04-07T04:01:16.206Z,8.48
2023-04-07T04:03:43.026Z,8.51
2023-04-07T04:06:09.577Z,8.62
2023-04-07T04:08:35.997Z,8.58
2023-04-07T04:11:02.424Z,8.58
2023-04-07T04:13:28.861Z,8.49
2023-04-07T04:15:55.269Z,8.85
2023-04-07T04:18:21.679Z,8.97
2023-04-07T04:20:48.790Z,8.84
2023-04-07T04:23:16.145Z,8.33
2023-04-07T04:25:42.561Z,8.12
2023-04-07T04:28:08.963Z,8.52
2023-04-07T04:30:35.430Z,8.30
2023-04-07T04:33:01.882Z,8.38
2023-04-07T04:35:30.560Z,8.31
2023-04-07T04:37:56.945Z,8.47
2023-04-07T04:40:25.970Z,8.36
2023-04-07T04:42:52.322Z,8.42
2023-04-07T04:45:21.584Z,8.07
2023-04-07T04:47:48.102Z,7.93
2023-04-07T04:50:14.718Z,7.94
2023-04-07T04:52:41.218Z,8.01
2023-04-07T04:55:08.239Z,8.33
2023-04-07T04:57:36.061Z,8.29
2023-04-07T05:00:04.377Z,8.03
2023-04-07T05:02:30.886Z,7.82
2023-04-07T05:04:57.645Z,8.09
2023-04-07T05:07:28.840Z,8.17
2023-04-07T05:09:55.349Z,8.24
2023-04-07T05:12:22.347Z,8.20
2023-04-07T05:14:48.736Z,8.11
2023-04-07T05:17:15.215Z,8.14
2023-04-07T05:19:41.642Z,7.92
2023-04-07T05:22:08.100Z,7.95
2023-04-07T05:24:34.597Z,8.22
2023-04-07T05:27:01.825Z,8.27
2023-04-07T05:29:29.137Z,8.32
2023-04-07T05:31:58.732Z,8.33
2023-04-07T05:34:25.594Z,8.16
2023-04-07T05:36:52.010Z,8.26
2023-04-07T05:39:18.455Z,8.31
2023-04-07T05:41:47.745Z,8.39
2023-04-07T05:44:14.195Z,8.05
2023-04-07T05:46:40.603Z,8.07
2023-04-07T05:51:39.847Z,8.48
2023-04-07T05:54:11.013Z,8.53
2023-04-07T05:56:37.372Z,8.51
2023-04-07T05:59:03.787Z,8.68
2023-04-07T06:01:30.307Z,8.62
2023-04-07T06:04:03.419Z,8.64
2023-04-07T06:06:30.090Z,8.64
2023-04-07T06:08:58.239Z,8.67
2023-04-07T06:11:25.516Z,8.70
2023-04-07T06:13:51.907Z,8.72
2023-04-07T06:16:19.677Z,8.85
2023-04-07T06:18:46.376Z,8.80
2023-04-07T06:21:12.766Z,9.13
2023-04-07T06:23:39.175Z,9.47
2023-04-07T06:26:05.664Z,9.78
2023-04-07T06:28:32.033Z,9.79
2023-04-07T06:30:59.456Z,10.24
2023-04-07T06:33:26.210Z,10.36
2023-04-07T06:35:52.829Z,10.67
2023-04-07T06:38:19.216Z,10.86
2023-04-07T06:40:45.687Z,10.64
2023-04-07T06:43:12.063Z,10.59
2023-04-07T06:45:41.375Z,10.71
2023-04-07T06:48:08.058Z,10.86
2023-04-07T06:50:34.525Z,10.60
2023-04-07T06:53:03.449Z,10.75
2023-04-07T06:55:29.945Z,10.86
2023-04-07T06:57:58.683Z,11.00
2023-04-07T07:00:25.650Z,10.71
2023-04-07T07:02:52.162Z,10.84
2023-04-07T07:05:18.702Z,11.17
2023-04-07T07:07:45.232Z,11.01
2023-04-07T07:10:14.205Z,10.99
2023-04-07T07:12:40.811Z,11.17
2023-04-07T07:15:07.996Z,11.22
2023-04-07T07:17:36.901Z,11.40
2023-04-07T07:20:03.538Z,11.68
2023-04-07T07:22:30.049Z,11.78
2023-04-07T07:24:56.511Z,11.93
2023-04-07T07:27:22.896Z,11.87
2023-04-07T07:29:49.322Z,12.17
2023-04-07T07:32:15.975Z,11.81
2023-04-07T07:34:42.491Z,12.18
2023-04-07T07:37:08.900Z,12.53
2023-04-07T07:39:35.440Z,12.26
2023-04-07T07:42:02.008Z,12.80
2023-04-07T07:44:29.311Z,12.22
2023-04-07T07:46:57.171Z,12.46
2023-04-07T07:49:23.600Z,12.68
2023-04-07T07:51:50.061Z,12.44
2023-04-07T07:54:18.996Z,12.31
2023-04-07T07:56:45.868Z,12.29
2023-04-07T07:59:12.397Z,12.71
2023-04-07T08:01:44.165Z,12.79
2023-04-07T08:04:11.056Z,12.71
2023-04-07T08:06:37.603Z,12.33
2023-04-07T08:09:06.348Z,12.35
2023-04-07T08:11:33.013Z,12.92
2023-04-07T08:14:01.771Z,12.61
2023-04-07T08:16:28.234Z,13.26
2023-04-07T08:18:54.720Z,13.07
2023-04-07T08:21:21.239Z,13.69
2023-04-07T08:23:48.020Z,13.94
2023-04-07T08:26:14.765Z,13.85
2023-04-07T08:28:41.336Z,14.75
2023-04-07T08:31:07.848Z,14.77
2023-04-07T08:33:34.359Z,14.29
2023-04-07T08:36:05.764Z,14.36
2023-04-07T08:38:32.352Z,13.67
2023-04-07T08:41:06.898Z,14.11
2023-04-07T08:43:36.414Z,14.36
2023-04-07T08:46:03.109Z,14.77
2023-04-07T08:48:34.327Z,14.13
2023-04-07T08:51:09.993Z,14.43
2023-04-07T08:53:53.690Z,14.40
2023-04-07T08:56:21.926Z,15.00
2023-04-07T08:58:49.066Z,14.25
2023-04-07T09:01:16.803Z,14.62
2023-04-07T09:03:45.463Z,14.79
2023-04-07T09:06:12.380Z,14.85
2023-04-07T09:08:38.859Z,14.83
2023-04-07T09:11:05.452Z,14.59
2023-04-07T09:13:31.818Z,14.17
2023-04-07T09:16:01.750Z,14.16
2023-04-07T09:18:28.538Z,15.19
2023-04-07T09:20:56.590Z,15.53
2023-04-07T09:23:29.283Z,14.73
2023-04-07T09:25:59.765Z,15.15
2023-04-07T09:28:38.132Z,14.54
2023-04-07T09:31:04.514Z,14.58
2023-04-07T09:33:30.954Z,14.49
2023-04-07T09:35:57.624Z,14.99
2023-04-07T09:38:33.497Z,15.00
2023-04-07T09:41:17.891Z,16.12
2023-04-07T09:43:46.198Z,16.49
2023-04-07T09:46:16.618Z,15.33
2023-04-07T09:48:45.566Z,15.35
2023-04-07T09:51:18.334Z,15.18
2023-04-07T09:53:52.528Z,14.89
2023-04-07T09:56:22.268Z,14.94
2023-04-07T09:58:53.360Z,14.89
2023-04-07T10:01:21.532Z,15.23
2023-04-07T10:03:49.091Z,14.74
2023-04-07T10:06:16.706Z,14.96
2023-04-07T10:08:43.844Z,15.09
2023-04-07T10:11:10.829Z,15.32
2023-04-07T10:13:39.720Z,15.88
2023-04-07T10:16:08.001Z,15.09
2023-04-07T10:18:39.122Z,15.13
2023-04-07T10:21:08.054Z,14.73
2023-04-07T10:23:40.920Z,14.63
2023-04-07T10:26:08.837Z,15.31
2023-04-07T10:28:43.968Z,15.24
2023-04-07T10:31:11.614Z,14.96
2023-04-07T10:33:52.120Z,14.58
2023-04-07T10:36:22.366Z,13.78
2023-04-07T10:39:07.062Z,13.82
2023-04-07T10:41:43.364Z,13.97
2023-04-07T10:44:38.753Z,13.88
2023-04-07T10:47:06.401Z,13.40
2023-04-07T10:49:34.600Z,13.25
2023-04-07T10:52:13.308Z,13.31
2023-04-07T10:54:40.125Z,13.27
2023-04-07T10:57:11.453Z,13.01
2023-04-07T11:00:06.942Z,12.82
2023-04-07T11:02:33.697Z,12.68
2023-04-07T11:05:00.519Z,12.79
2023-04-07T11:07:47.159Z,13.11
2023-04-07T11:10:15.928Z,12.98
2023-04-07T11:12:43.733Z,13.19
2023-04-07T11:15:22.545Z,13.04
2023-04-07T11:18:12.059Z,12.95
2023-04-07T11:21:00.667Z,12.91
2023-04-07T11:23:30.442Z,13.00
2023-04-07T11:26:02.054Z,13.03
2023-04-07T11:28:29.621Z,12.86
2023-04-07T11:31:01.043Z,12.72
2023-04-07T11:33:32.185Z,12.86
2023-04-07T11:36:05.680Z,13.40
2023-04-07T11:38:38.943Z,13.26
2023-04-07T11:41:13.452Z,13.74
2023-04-07T11:43:43.661Z,13.40
2023-04-07T11:46:11.416Z,13.74
2023-04-07T11:48:42.447Z,13.22
2023-04-07T11:51:20.501Z,13.40
2023-04-07T11:53:50.021Z,13.70
2023-04-07T11:56:17.496Z,13.92
2023-04-07T11:58:54.993Z,13.16
2023-04-07T12:01:24.659Z,13.37
2023-04-07T12:04:02.716Z,13.20
2023-04-07T12:06:31.814Z,13.39
2023-04-07T12:08:58.313Z,13.47
2023-04-07T12:11:25.281Z,13.75
2023-04-07T12:13:51.885Z,13.74
2023-04-07T12:16:19.298Z,13.99
2023-04-07T12:18:45.890Z,14.27
2023-04-07T12:21:12.273Z,14.26
2023-04-07T12:23:38.728Z,14.49
2023-04-07T12:26:05.302Z,14.03
2023-04-07T12:28:33.895Z,14.61
2023-04-07T12:31:00.328Z,14.49
2023-04-07T12:33:26.801Z,14.27
2023-04-07T12:35:53.378Z,14.23
2023-04-07T12:38:22.531Z,14.11
2023-04-07T12:40:48.931Z,14.00
2023-04-07T12:43:15.522Z,14.24
2023-04-07T12:45:42.180Z,14.31
2023-04-07T12:48:08.725Z,13.82
2023-04-07T12:50:37.516Z,13.84
2023-04-07T12:53:05.194Z,13.94
2023-04-07T12:55:36.654Z,14.00
2023-04-07T12:58:05.734Z,14.07
2023-04-07T13:00:34.729Z,13.93
2023-04-07T13:03:01.778Z,13.89
2023-04-07T13:05:29.261Z,13.76
2023-04-07T13:07:55.925Z,13.63
2023-04-07T13:10:22.364Z,13.62
2023-04-07T13:12:51.116Z,13.80
2023-04-07T13:15:17.547Z,13.49
2023-04-07T13:17:44.059Z,13.70
2023-04-07T13:20:11.076Z,13.76
2023-04-07T13:22:46.116Z,13.77
2023-04-07T13:25:15.389Z,13.53
2023-04-07T13:27:44.287Z,13.56
2023-04-07T13:30:13.958Z,13.82
2023-04-07T13:32:40.624Z,14.01
2023-04-07T13:35:07.338Z,13.83
2023-04-07T13:37:33.701Z,14.19
2023-04-07T13:40:00.302Z,14.09
2023-04-07T13:42:26.706Z,13.98
2023-04-07T13:44:54.529Z,14.20
2023-04-07T13:47:21.523Z,14.06
2023-04-07T13:49:49.264Z,14.05
2023-04-07T13:52:16.028Z,14.47
2023-04-07T13:54:43.155Z,14.39
2023-04-07T13:57:09.705Z,13.94
2023-04-07T13:59:36.232Z,14.20
2023-04-07T14:02:02.822Z,13.91
2023-04-07T14:04:29.419Z,13.48
2023-04-07T14:06:56.162Z,13.66
2023-04-07T14:09:23.027Z,13.23
2023-04-07T14:11:52.463Z,13.59
2023-04-07T14:14:18.829Z,13.96
2023-04-07T14:16:45.203Z,13.73
2023-04-07T14:19:11.758Z,13.57
2023-04-07T14:21:38.246Z,13.58
2023-04-07T14:24:04.670Z,14.03
2023-04-07T14:26:31.044Z,13.91
2023-04-07T14:28:59.888Z,14.11
2023-04-07T14:31:26.663Z,13.89
2023-04-07T14:33:53.270Z,13.84
2023-04-07T14:36:19.696Z,13.45
2023-04-07T14:38:46.136Z,13.53
2023-04-07T14:41:13.040Z,13.42
2023-04-07T14:43:39.834Z,13.64
2023-04-07T14:46:06.962Z,13.80
2023-04-07T14:48:35.839Z,14.11
2023-04-07T14:51:09.786Z,14.27
2023-04-07T14:53:36.743Z,14.28
2023-04-07T14:56:06.575Z,13.72
2023-04-07T14:58:37.566Z,14.16
2023-04-07T15:01:06.220Z,14.10
2023-04-07T15:03:34.775Z,13.61
2023-04-07T15:06:02.522Z,13.66
2023-04-07T15:08:28.999Z,13.38
2023-04-07T15:10:55.394Z,13.50
2023-04-07T15:13:21.870Z,13.20
2023-04-07T15:15:48.261Z,13.50
2023-04-07T15:18:14.695Z,13.38
2023-04-07T15:20:41.146Z,13.40
2023-04-07T15:23:08.103Z,13.18
2023-04-07T15:25:34.602Z,13.30
2023-04-07T15:28:01.082Z,13.26
2023-04-07T15:30:27.432Z,13.12
2023-04-07T15:33:00.823Z,13.13
2023-04-07T15:35:29.931Z,13.05
2023-04-07T15:37:56.356Z,12.78
2023-04-07T15:40:22.994Z,12.93
2023-04-07T15:42:49.575Z,12.92
2023-04-07T15:45:16.059Z,12.88
2023-04-07T15:47:42.467Z,12.84
2023-04-07T15:50:09.410Z,12.74
2023-04-07T15:52:36.048Z,12.76
2023-04-07T15:55:02.632Z,12.84
2023-04-07T15:57:31.502Z,12.58
2023-04-07T15:59:57.965Z,12.58
2023-04-07T16:02:24.397Z,12.64
2023-04-07T16:04:51.264Z,12.74
2023-04-07T16:07:18.261Z,12.48
2023-04-07T16:09:44.706Z,12.51
2023-04-07T16:12:13.319Z,12.51
2023-04-07T16:14:42.092Z,12.47
2023-04-07T16:17:08.570Z,12.49
2023-04-07T16:19:35.022Z,12.42
2023-04-07T16:22:01.516Z,12.61
2023-04-07T16:24:27.951Z,12.77
2023-04-07T16:26:55.790Z,12.58
2023-04-07T16:29:25.309Z,12.01
2023-04-07T16:31:54.194Z,12.27
2023-04-07T16:34:20.712Z,12.05
2023-04-07T16:36:47.525Z,12.11
2023-04-07T16:39:13.985Z,12.02
2023-04-07T16:41:40.346Z,11.82
2023-04-07T16:44:07.136Z,11.66
2023-04-07T16:46:33.700Z,11.48
2023-04-07T16:49:00.138Z,11.61
2023-04-07T16:51:28.265Z,11.72
2023-04-07T16:53:54.930Z,11.67
2023-04-07T16:56:23.295Z,11.61
2023-04-07T16:58:52.954Z,11.54
2023-04-07T17:01:19.331Z,11.53
2023-04-07T17:03:48.402Z,11.91
2023-04-07T17:06:16.492Z,11.22
2023-04-07T17:08:43.990Z,11.49
2023-04-07T17:11:11.347Z,11.55
2023-04-07T17:13:42.755Z,11.48
2023-04-07T17:16:14.249Z,11.66
2023-04-07T17:18:46.824Z,11.70
2023-04-07T17:21:15.705Z,11.17
2023-04-07T17:23:42.492Z,11.09
2023-04-07T17:26:11.384Z,10.99
2023-04-07T17:28:37.816Z,11.16
2023-04-07T17:31:04.283Z,11.16
2023-04-07T17:33:33.481Z,11.18
2023-04-07T17:36:03.336Z,11.48
2023-04-07T17:38:30.578Z,11.71
2023-04-07T17:41:04.426Z,11.34
2023-04-07T17:43:31.661Z,11.17
2023-04-07T17:45:58.151Z,11.68
2023-04-07T17:48:24.688Z,11.42
2023-04-07T17:50:54.048Z,11.37
2023-04-07T17:53:23.020Z,11.52
2023-04-07T17:55:49.986Z,11.58
2023-04-07T17:58:20.121Z,11.61
2023-04-07T18:00:47.187Z,11.66
2023-04-07T18:03:14.725Z,11.21
2023-04-07T18:05:45.059Z,11.29
2023-04-07T18:08:15.049Z,11.64
2023-04-07T18:10:42.316Z,11.46
2023-04-07T18:13:09.120Z,11.23
2023-04-07T18:15:35.654Z,11.19
2023-04-07T18:18:05.324Z,11.31
2023-04-07T18:20:34.268Z,11.21
2023-04-07T18:23:13.653Z,10.98
2023-04-07T18:25:40.065Z,11.25
2023-04-07T18:28:06.459Z,11.48
2023-04-07T18:30:33.079Z,11.37
2023-04-07T18:32:59.452Z,11.46
2023-04-07T18:35:26.231Z,11.36
2023-04-07T18:37:52.696Z,11.34
2023-04-07T18:40:19.125Z,11.60
2023-04-07T18:42:45.603Z,11.53
2023-04-07T18:45:11.976Z,11.46
2023-04-07T18:47:38.956Z,11.56
2023-04-07T18:50:05.940Z,10.75
2023-04-07T18:52:32.437Z,10.34
2023-04-07T18:55:01.225Z,10.75
2023-04-07T18:57:30.732Z,10.61
2023-04-07T18:59:57.285Z,10.96
2023-04-07T19:02:23.786Z,10.65
2023-04-07T19:04:50.443Z,10.62
2023-04-07T19:07:16.818Z,10.75
2023-04-07T19:09:43.313Z,10.80
2023-04-07T19:12:11.221Z,10.82
2023-04-07T19:14:37.727Z,10.43
2023-04-07T19:17:06.433Z,10.72
2023-04-07T19:19:33.366Z,10.68
2023-04-07T19:21:59.904Z,10.19
2023-04-07T19:24:26.445Z,10.14
2023-04-07T19:26:53.861Z,10.17
2023-04-07T19:29:20.317Z,10.16
2023-04-07T19:31:49.266Z,10.10
2023-04-07T19:34:15.843Z,10.14
2023-04-07T19:36:42.269Z,10.02
2023-04-07T19:39:08.688Z,10.07
2023-04-07T19:41:37.996Z,10.10
2023-04-07T19:44:04.356Z,10.09
2023-04-07T19:46:33.157Z,10.03
2023-04-07T19:49:04.363Z,10.02
2023-04-07T19:51:31.045Z,9.94
2023-04-07T19:53:57.464Z,9.95
2023-04-07T19:56:25.016Z,10.02
2023-04-07T19:58:51.580Z,9.99
2023-04-07T20:01:18.230Z,10.00
2023-04-07T20:03:45.358Z,9.93
2023-04-07T20:06:18.034Z,9.98
2023-04-07T20:08:44.399Z,9.97
2023-04-07T20:11:11.202Z,10.03
2023-04-07T20:13:39.544Z,9.99
2023-04-07T20:16:06.457Z,9.91
2023-04-07T20:18:32.935Z,9.93
2023-04-07T20:21:06.243Z,9.82
2023-04-07T20:23:33.329Z,9.77
2023-04-07T20:25:59.922Z,9.96
2023-04-07T20:28:26.735Z,9.84
2023-04-07T20:30:53.198Z,9.84
2023-04-07T20:33:19.994Z,9.81
2023-04-07T20:35:47.056Z,9.81
2023-04-07T20:38:18.813Z,9.80
2023-04-07T20:40:45.482Z,9.80
2023-04-07T20:43:12.007Z,9.84
2023-04-07T20:45:40.855Z,9.81
2023-04-07T20:48:07.621Z,9.78
2023-04-07T20:50:34.096Z,9.75
2023-04-07T20:53:05.420Z,9.75
2023-04-07T20:55:31.753Z,9.64
2023-04-07T20:57:58.819Z,9.57
2023-04-07T21:00:25.943Z,9.57
2023-04-07T21:02:52.541Z,9.62
2023-04-07T21:05:19.120Z,9.65
2023-04-07T21:07:45.503Z,9.76
2023-04-07T21:10:12.263Z,9.53
2023-04-07T21:12:41.379Z,9.49
2023-04-07T21:15:11.403Z,9.40
2023-04-07T21:17:37.989Z,9.39
2023-04-07T21:20:04.746Z,9.43
2023-04-07T21:22:31.172Z,9.24
2023-04-07T21:25:00.266Z,9.23
2023-04-07T21:27:26.646Z,9.23
2023-04-07T21:29:55.433Z,9.12
2023-04-07T21:32:25.099Z,9.18
2023-04-07T21:34:52.952Z,9.02
2023-04-07T21:37:20.601Z,9.02
2023-04-07T21:39:46.960Z,9.02
2023-04-07T21:42:13.492Z,8.95
2023-04-07T21:44:42.251Z,8.87
2023-04-07T21:47:08.832Z,9.03
2023-04-07T21:49:36.130Z,8.81
2023-04-07T21:52:02.583Z,8.66
2023-04-07T21:54:31.297Z,8.61
2023-04-07T21:56:57.727Z,8.47
2023-04-07T21:59:24.075Z,8.41
2023-04-07T22:01:50.510Z,8.41
2023-04-07T22:04:19.951Z,8.36
2023-04-07T22:06:49.821Z,8.43
2023-04-07T22:09:16.192Z,8.24
2023-04-07T22:11:42.701Z,8.36
2023-04-07T22:14:11.663Z,8.33
2023-04-07T22:16:38.277Z,8.15
2023-04-07T22:19:04.710Z,8.14
2023-04-07T22:21:31.432Z,8.11
2023-04-07T22:23:57.788Z,8.27
2023-04-07T22:26:24.314Z,8.19
2023-04-07T22:28:51.282Z,8.30
2023-04-07T22:31:21.053Z,8.40
2023-04-07T22:33:47.588Z,8.72
2023-04-07T22:36:16.296Z,8.92
2023-04-07T22:38:42.969Z,7.80
2023-04-07T22:41:11.985Z,7.66
2023-04-07T22:43:38.445Z,7.49
2023-04-07T22:46:04.835Z,7.55
2023-04-07T22:48:31.319Z,7.59
2023-04-07T22:50:57.654Z,7.48
2023-04-07T22:53:24.050Z,7.61
2023-04-07T22:55:51.277Z,7.58
2023-04-07T22:58:20.009Z,7.61
2023-04-07T23:00:46.477Z,7.79
2023-04-07T23:03:14.742Z,7.73
2023-04-07T23:05:43.638Z,7.65
2023-04-07T23:08:10.444Z,7.67
2023-04-07T23:10:41.889Z,7.66
2023-04-07T23:13:08.314Z,7.62
2023-04-07T23:15:35.894Z,7.58
2023-04-07T23:18:02.305Z,7.52
2023-04-07T23:20:28.772Z,7.47
2023-04-07T23:22:55.502Z,7.54
2023-04-07T23:25:22.208Z,7.48
2023-04-07T23:27:48.730Z,7.46
2023-04-07T23:30:15.555Z,7.47
2023-04-07T23:32:44.558Z,7.54
2023-04-07T23:35:11.072Z,7.60
2023-04-07T23:37:40.113Z,7.64
2023-04-07T23:40:07.289Z,7.65
2023-04-07T23:42:33.644Z,7.73
2023-04-07T23:45:00.379Z,7.81
2023-04-07T23:47:27.006Z,7.84
2023-04-07T23:49:53.541Z,7.79
2023-04-07T23:52:21.416Z,7.93
2023-04-07T23:54:47.973Z,7.97
2023-04-07T23:57:14.400Z,7.90
2023-04-07T23:59:40.796Z,8.04
